sensor_id;sensor_type;location;lat;lon;timestamp;temperature;humidity
3602;DHT22;1815;50.950;6.920;2022-12-24T00:02:18;13.90;99.90
3602;DHT22;1815;50.950;6.920;2022-12-24T00:04:48;13.90;99.90
3602;DHT22;1815;50.950;6.920;2022-12-24T00:07:14;13.80;99.90
3602;DHT22;1815;50.950;6.920;2022-12-24T00:09:40;13.80;99.90
3602;DHT22;1815;50.950;6.920;2022-12-24T00:12:06;13.80;99.90
3602;DHT22;1815;50.950;6.920;2022-12-24T00:14:31;13.80;99.90
3602;DHT22;1815;50.950;6.920;2022-12-24T00:16:57;13.80;99.90
3602;DHT22;1815;50.950;6.920;2022-12-24T00:19:23;13.70;99.90
3602;DHT22;1815;50.950;6.920;2022-12-24T00:21:49;13.70;99.90
3602;DHT22;1815;50.950;6.920;2022-12-24T00:24:14;13.60;99.90
3602;DHT22;1815;50.950;6.920;2022-12-24T00:26:40;13.60;99.90
3602;DHT22;1815;50.950;6.920;2022-12-24T00:29:06;13.60;99.90
3602;DHT22;1815;50.950;6.920;2022-12-24T00:31:31;13.50;99.90
3602;DHT22;1815;50.950;6.920;2022-12-24T00:33:57;13.50;99.90
3602;DHT22;1815;50.950;6.920;2022-12-24T00:36:23;13.50;99.90
3602;DHT22;1815;50.950;6.920;2022-12-24T00:38:48;13.40;99.90
3602;DHT22;1815;50.950;6.920;2022-12-24T00:41:14;13.50;99.90
3602;DHT22;1815;50.950;6.920;2022-12-24T00:44:00;13.50;99.90
3602;DHT22;1815;50.950;6.920;2022-12-24T00:46:28;13.50;99.90
3602;DHT22;1815;50.950;6.920;2022-12-24T00:48:54;13.50;99.90
3602;DHT22;1815;50.950;6.920;2022-12-24T00:51:21;13.50;99.90
3602;DHT22;1815;50.950;6.920;2022-12-24T00:53:47;13.50;99.90
3602;DHT22;1815;50.950;6.920;2022-12-24T00:56:13;13.50;99.90
3602;DHT22;1815;50.950;6.920;2022-12-24T00:58:39;13.60;99.90
3602;DHT22;1815;50.950;6.920;2022-12-24T01:01:05;13.60;99.90
3602;DHT22;1815;50.950;6.920;2022-12-24T01:03:31;13.60;99.90
3602;DHT22;1815;50.950;6.920;2022-12-24T01:06:04;13.60;99.90
3602;DHT22;1815;50.950;6.920;2022-12-24T01:08:31;13.70;99.90
3602;DHT22;1815;50.950;6.920;2022-12-24T01:10:57;13.70;99.90
3602;DHT22;1815;50.950;6.920;2022-12-24T01:13:24;13.70;99.90
3602;DHT22;1815;50.950;6.920;2022-12-24T01:15:49;13.70;99.90
3602;DHT22;1815;50.950;6.920;2022-12-24T01:18:15;13.70;99.90
3602;DHT22;1815;50.950;6.920;2022-12-24T01:20:41;13.80;99.90
3602;DHT22;1815;50.950;6.920;2022-12-24T01:23:07;13.80;99.90
3602;DHT22;1815;50.950;6.920;2022-12-24T01:25:32;13.80;99.90
3602;DHT22;1815;50.950;6.920;2022-12-24T01:27:58;13.80;99.90
3602;DHT22;1815;50.950;6.920;2022-12-24T01:30:24;13.80;99.90
3602;DHT22;1815;50.950;6.920;2022-12-24T01:32:50;13.80;99.90
3602;DHT22;1815;50.950;6.920;2022-12-24T01:35:16;13.90;99.90
3602;DHT22;1815;50.950;6.920;2022-12-24T01:37:42;13.90;99.90
3602;DHT22;1815;50.950;6.920;2022-12-24T01:40:16;13.90;99.90
3602;DHT22;1815;50.950;6.920;2022-12-24T01:43:01;13.90;99.90
3602;DHT22;1815;50.950;6.920;2022-12-24T01:45:50;13.90;99.90
3602;DHT22;1815;50.950;6.920;2022-12-24T01:53:30;13.80;99.90
3602;DHT22;1815;50.950;6.920;2022-12-24T01:55:58;13.70;99.90
3602;DHT22;1815;50.950;6.920;2022-12-24T01:58:24;13.70;99.90
3602;DHT22;1815;50.950;6.920;2022-12-24T02:00:50;13.60;99.90
3602;DHT22;1815;50.950;6.920;2022-12-24T02:03:17;13.60;99.90
3602;DHT22;1815;50.950;6.920;2022-12-24T02:05:49;13.50;99.90
3602;DHT22;1815;50.950;6.920;2022-12-24T02:08:16;13.50;99.90
3602;DHT22;1815;50.950;6.920;2022-12-24T02:10:44;13.50;99.90
3602;DHT22;1815;50.950;6.920;2022-12-24T02:13:11;13.40;99.90
3602;DHT22;1815;50.950;6.920;2022-12-24T02:16:20;13.40;99.90
3602;DHT22;1815;50.950;6.920;2022-12-24T02:26:59;13.20;99.90
3602;DHT22;1815;50.950;6.920;2022-12-24T02:37:52;13.10;99.90
3602;DHT22;1815;50.950;6.920;2022-12-24T02:40:29;13.10;99.90
3602;DHT22;1815;50.950;6.920;2022-12-24T02:43:02;13.10;99.90
3602;DHT22;1815;50.950;6.920;2022-12-24T02:45:31;13.10;99.90
3602;DHT22;1815;50.950;6.920;2022-12-24T02:47:58;13.10;99.90
3602;DHT22;1815;50.950;6.920;2022-12-24T02:50:24;13.10;99.90
3602;DHT22;1815;50.950;6.920;2022-12-24T02:52:50;13.10;99.90
3602;DHT22;1815;50.950;6.920;2022-12-24T03:01:01;13.30;99.90
3602;DHT22;1815;50.950;6.920;2022-12-24T03:03:59;13.30;99.90
3602;DHT22;1815;50.950;6.920;2022-12-24T03:06:39;13.30;99.90
3602;DHT22;1815;50.950;6.920;2022-12-24T03:09:27;13.40;99.90
3602;DHT22;1815;50.950;6.920;2022-12-24T03:12:11;13.40;99.90
3602;DHT22;1815;50.950;6.920;2022-12-24T03:14:39;13.50;99.90
3602;DHT22;1815;50.950;6.920;2022-12-24T03:17:07;13.50;99.90
3602;DHT22;1815;50.950;6.920;2022-12-24T03:19:33;13.50;99.90
3602;DHT22;1815;50.950;6.920;2022-12-24T03:22:01;13.50;99.90
3602;DHT22;1815;50.950;6.920;2022-12-24T03:24:28;13.60;99.90
3602;DHT22;1815;50.950;6.920;2022-12-24T03:26:55;13.60;99.90
3602;DHT22;1815;50.950;6.920;2022-12-24T03:29:21;13.60;99.90
3602;DHT22;1815;50.950;6.920;2022-12-24T03:31:50;13.60;99.90
3602;DHT22;1815;50.950;6.920;2022-12-24T03:34:17;13.70;99.90
3602;DHT22;1815;50.950;6.920;2022-12-24T03:36:44;13.70;99.90
3602;DHT22;1815;50.950;6.920;2022-12-24T03:39:11;13.60;99.90
3602;DHT22;1815;50.950;6.920;2022-12-24T03:41:37;13.60;99.90
3602;DHT22;1815;50.950;6.920;2022-12-24T03:44:04;13.60;99.90
3602;DHT22;1815;50.950;6.920;2022-12-24T03:46:29;13.50;99.90
3602;DHT22;1815;50.950;6.920;2022-12-24T03:48:55;13.50;99.90
3602;DHT22;1815;50.950;6.920;2022-12-24T03:51:23;13.50;99.90
3602;DHT22;1815;50.950;6.920;2022-12-24T03:53:51;13.40;99.90
3602;DHT22;1815;50.950;6.920;2022-12-24T03:56:17;13.40;99.90
3602;DHT22;1815;50.950;6.920;2022-12-24T03:58:43;13.40;99.90
3602;DHT22;1815;50.950;6.920;2022-12-24T04:01:09;13.30;99.90
3602;DHT22;1815;50.950;6.920;2022-12-24T04:03:34;13.20;99.90
3602;DHT22;1815;50.950;6.920;2022-12-24T04:06:12;13.20;99.90
3602;DHT22;1815;50.950;6.920;2022-12-24T04:08:39;13.20;99.90
3602;DHT22;1815;50.950;6.920;2022-12-24T04:11:08;13.10;99.90
3602;DHT22;1815;50.950;6.920;2022-12-24T04:13:34;13.10;99.90
3602;DHT22;1815;50.950;6.920;2022-12-24T04:16:07;13.00;99.90
3602;DHT22;1815;50.950;6.920;2022-12-24T04:18:34;13.00;99.90
3602;DHT22;1815;50.950;6.920;2022-12-24T04:21:00;13.00;99.90
3602;DHT22;1815;50.950;6.920;2022-12-24T04:23:29;12.90;99.90
3602;DHT22;1815;50.950;6.920;2022-12-24T04:25:55;12.90;99.90
3602;DHT22;1815;50.950;6.920;2022-12-24T04:28:23;12.90;99.90
3602;DHT22;1815;50.950;6.920;2022-12-24T04:30:48;12.90;99.90
3602;DHT22;1815;50.950;6.920;2022-12-24T04:33:14;12.80;99.90
3602;DHT22;1815;50.950;6.920;2022-12-24T04:35:40;12.80;99.90
3602;DHT22;1815;50.950;6.920;2022-12-24T04:38:10;12.80;99.90
3602;DHT22;1815;50.950;6.920;2022-12-24T04:40:35;12.70;99.90
3602;DHT22;1815;50.950;6.920;2022-12-24T04:43:01;12.70;99.90
3602;DHT22;1815;50.950;6.920;2022-12-24T04:45:27;12.70;99.90
3602;DHT22;1815;50.950;6.920;2022-12-24T04:47:53;12.70;99.90
3602;DHT22;1815;50.950;6.920;2022-12-24T04:50:19;12.70;99.90
3602;DHT22;1815;50.950;6.920;2022-12-24T04:52:44;12.70;99.90
3602;DHT22;1815;50.950;6.920;2022-12-24T04:55:10;12.70;99.90
3602;DHT22;1815;50.950;6.920;2022-12-24T04:57:36;12.60;99.90
3602;DHT22;1815;50.950;6.920;2022-12-24T05:00:04;12.60;99.90
3602;DHT22;1815;50.950;6.920;2022-12-24T05:02:30;12.60;99.90
3602;DHT22;1815;50.950;6.920;2022-12-24T05:04:55;12.60;99.90
3602;DHT22;1815;50.950;6.920;2022-12-24T05:07:21;12.50;99.90
3602;DHT22;1815;50.950;6.920;2022-12-24T05:09:47;12.60;99.90
3602;DHT22;1815;50.950;6.920;2022-12-24T05:12:13;12.50;99.90
3602;DHT22;1815;50.950;6.920;2022-12-24T05:14:39;12.50;99.90
3602;DHT22;1815;50.950;6.920;2022-12-24T05:17:05;12.50;99.90
3602;DHT22;1815;50.950;6.920;2022-12-24T05:19:31;12.50;99.90
3602;DHT22;1815;50.950;6.920;2022-12-24T05:21:57;12.40;99.90
3602;DHT22;1815;50.950;6.920;2022-12-24T05:24:41;12.40;99.90
3602;DHT22;1815;50.950;6.920;2022-12-24T05:27:27;12.40;99.90
3602;DHT22;1815;50.950;6.920;2022-12-24T05:29:52;12.30;99.90
3602;DHT22;1815;50.950;6.920;2022-12-24T05:32:18;12.30;99.90
3602;DHT22;1815;50.950;6.920;2022-12-24T05:34:44;12.30;99.90
3602;DHT22;1815;50.950;6.920;2022-12-24T05:37:09;12.30;99.90
3602;DHT22;1815;50.950;6.920;2022-12-24T05:39:35;12.30;99.90
3602;DHT22;1815;50.950;6.920;2022-12-24T05:42:01;12.30;99.90
3602;DHT22;1815;50.950;6.920;2022-12-24T05:44:26;12.30;99.90
3602;DHT22;1815;50.950;6.920;2022-12-24T05:46:52;12.30;99.90
3602;DHT22;1815;50.950;6.920;2022-12-24T05:49:18;12.30;99.90
3602;DHT22;1815;50.950;6.920;2022-12-24T05:51:44;12.20;99.90
3602;DHT22;1815;50.950;6.920;2022-12-24T05:54:09;12.20;99.90
3602;DHT22;1815;50.950;6.920;2022-12-24T05:56:35;12.20;99.90
3602;DHT22;1815;50.950;6.920;2022-12-24T05:59:01;12.10;99.90
3602;DHT22;1815;50.950;6.920;2022-12-24T06:01:27;12.10;99.90
3602;DHT22;1815;50.950;6.920;2022-12-24T06:03:52;12.10;99.90
3602;DHT22;1815;50.950;6.920;2022-12-24T06:06:21;12.10;99.90
3602;DHT22;1815;50.950;6.920;2022-12-24T06:08:48;12.10;99.90
3602;DHT22;1815;50.950;6.920;2022-12-24T06:11:17;12.10;99.90
3602;DHT22;1815;50.950;6.920;2022-12-24T06:13:43;12.10;99.90
3602;DHT22;1815;50.950;6.920;2022-12-24T06:16:12;12.10;99.90
3602;DHT22;1815;50.950;6.920;2022-12-24T06:18:38;12.10;99.90
3602;DHT22;1815;50.950;6.920;2022-12-24T06:21:05;12.10;99.90
3602;DHT22;1815;50.950;6.920;2022-12-24T06:23:32;12.10;99.90
3602;DHT22;1815;50.950;6.920;2022-12-24T06:25:59;12.10;99.90
3602;DHT22;1815;50.950;6.920;2022-12-24T06:28:30;12.10;99.90
3602;DHT22;1815;50.950;6.920;2022-12-24T06:30:56;12.10;99.90
3602;DHT22;1815;50.950;6.920;2022-12-24T06:33:22;12.10;99.90
3602;DHT22;1815;50.950;6.920;2022-12-24T06:35:47;12.10;99.90
3602;DHT22;1815;50.950;6.920;2022-12-24T06:38:14;12.10;99.90
3602;DHT22;1815;50.950;6.920;2022-12-24T06:40:42;12.10;99.90
3602;DHT22;1815;50.950;6.920;2022-12-24T06:43:09;12.10;99.90
3602;DHT22;1815;50.950;6.920;2022-12-24T06:45:35;12.10;99.90
3602;DHT22;1815;50.950;6.920;2022-12-24T06:48:00;12.10;99.90
3602;DHT22;1815;50.950;6.920;2022-12-24T06:50:27;12.10;99.90
3602;DHT22;1815;50.950;6.920;2022-12-24T06:52:52;12.10;99.90
3602;DHT22;1815;50.950;6.920;2022-12-24T06:55:18;12.10;99.90
3602;DHT22;1815;50.950;6.920;2022-12-24T06:57:44;12.10;99.90
3602;DHT22;1815;50.950;6.920;2022-12-24T07:00:11;12.00;99.90
3602;DHT22;1815;50.950;6.920;2022-12-24T07:02:41;12.00;99.90
3602;DHT22;1815;50.950;6.920;2022-12-24T07:05:08;11.90;99.90
3602;DHT22;1815;50.950;6.920;2022-12-24T07:07:36;11.90;99.90
3602;DHT22;1815;50.950;6.920;2022-12-24T07:10:03;11.90;99.90
3602;DHT22;1815;50.950;6.920;2022-12-24T07:12:31;11.90;99.90
3602;DHT22;1815;50.950;6.920;2022-12-24T07:14:57;11.90;99.90
3602;DHT22;1815;50.950;6.920;2022-12-24T07:17:22;12.00;99.90
3602;DHT22;1815;50.950;6.920;2022-12-24T07:19:51;12.00;99.90
3602;DHT22;1815;50.950;6.920;2022-12-24T07:22:17;12.00;99.90
3602;DHT22;1815;50.950;6.920;2022-12-24T07:24:42;12.00;99.90
3602;DHT22;1815;50.950;6.920;2022-12-24T07:27:08;12.10;99.90
3602;DHT22;1815;50.950;6.920;2022-12-24T07:29:34;12.20;99.90
3602;DHT22;1815;50.950;6.920;2022-12-24T07:32:00;12.20;99.90
3602;DHT22;1815;50.950;6.920;2022-12-24T07:34:27;12.30;99.90
3602;DHT22;1815;50.950;6.920;2022-12-24T07:36:52;12.30;99.90
3602;DHT22;1815;50.950;6.920;2022-12-24T07:39:18;12.40;99.90
3602;DHT22;1815;50.950;6.920;2022-12-24T07:41:43;12.40;99.90
3602;DHT22;1815;50.950;6.920;2022-12-24T07:44:13;12.40;99.90
3602;DHT22;1815;50.950;6.920;2022-12-24T07:46:39;12.50;99.90
3602;DHT22;1815;50.950;6.920;2022-12-24T07:49:05;12.50;99.90
3602;DHT22;1815;50.950;6.920;2022-12-24T07:51:30;12.60;99.90
3602;DHT22;1815;50.950;6.920;2022-12-24T07:53:56;12.60;99.90
3602;DHT22;1815;50.950;6.920;2022-12-24T07:56:22;12.60;99.90
3602;DHT22;1815;50.950;6.920;2022-12-24T07:58:49;12.60;99.90
3602;DHT22;1815;50.950;6.920;2022-12-24T08:01:15;12.60;99.90
3602;DHT22;1815;50.950;6.920;2022-12-24T08:03:41;12.70;99.90
3602;DHT22;1815;50.950;6.920;2022-12-24T08:06:07;12.70;99.90
3602;DHT22;1815;50.950;6.920;2022-12-24T08:08:33;12.70;99.90
3602;DHT22;1815;50.950;6.920;2022-12-24T08:11:04;12.70;99.90
3602;DHT22;1815;50.950;6.920;2022-12-24T08:13:30;12.70;99.90
3602;DHT22;1815;50.950;6.920;2022-12-24T08:15:57;12.80;99.90
3602;DHT22;1815;50.950;6.920;2022-12-24T08:18:23;12.80;99.90
3602;DHT22;1815;50.950;6.920;2022-12-24T08:20:49;12.90;99.90
3602;DHT22;1815;50.950;6.920;2022-12-24T08:23:15;12.90;99.90
3602;DHT22;1815;50.950;6.920;2022-12-24T08:25:45;13.00;99.90
3602;DHT22;1815;50.950;6.920;2022-12-24T08:28:12;13.00;99.90
3602;DHT22;1815;50.950;6.920;2022-12-24T08:30:38;13.10;99.90
3602;DHT22;1815;50.950;6.920;2022-12-24T08:33:04;13.10;99.90
3602;DHT22;1815;50.950;6.920;2022-12-24T08:35:30;13.10;99.90
3602;DHT22;1815;50.950;6.920;2022-12-24T08:37:56;13.20;99.90
3602;DHT22;1815;50.950;6.920;2022-12-24T08:40:24;13.30;99.90
3602;DHT22;1815;50.950;6.920;2022-12-24T08:42:50;13.30;99.90
3602;DHT22;1815;50.950;6.920;2022-12-24T08:45:16;13.30;99.90
3602;DHT22;1815;50.950;6.920;2022-12-24T08:47:41;13.40;99.90
3602;DHT22;1815;50.950;6.920;2022-12-24T08:50:10;13.40;99.90
3602;DHT22;1815;50.950;6.920;2022-12-24T08:52:36;13.50;99.90
3602;DHT22;1815;50.950;6.920;2022-12-24T08:55:02;13.50;99.90
3602;DHT22;1815;50.950;6.920;2022-12-24T08:57:28;13.60;99.90
3602;DHT22;1815;50.950;6.920;2022-12-24T08:59:53;13.60;99.90
3602;DHT22;1815;50.950;6.920;2022-12-24T09:02:19;13.60;99.90
3602;DHT22;1815;50.950;6.920;2022-12-24T09:04:45;13.60;99.90
3602;DHT22;1815;50.950;6.920;2022-12-24T09:07:11;13.60;99.90
3602;DHT22;1815;50.950;6.920;2022-12-24T09:09:37;13.70;99.90
3602;DHT22;1815;50.950;6.920;2022-12-24T09:12:04;13.70;99.90
3602;DHT22;1815;50.950;6.920;2022-12-24T09:14:30;13.60;99.90
3602;DHT22;1815;50.950;6.920;2022-12-24T09:16:56;13.70;99.90
3602;DHT22;1815;50.950;6.920;2022-12-24T09:19:22;13.60;99.90
3602;DHT22;1815;50.950;6.920;2022-12-24T09:21:48;13.60;99.90
3602;DHT22;1815;50.950;6.920;2022-12-24T09:24:15;13.60;99.90
3602;DHT22;1815;50.950;6.920;2022-12-24T09:26:41;13.60;99.90
3602;DHT22;1815;50.950;6.920;2022-12-24T09:29:09;13.60;99.90
3602;DHT22;1815;50.950;6.920;2022-12-24T09:31:35;13.50;99.90
3602;DHT22;1815;50.950;6.920;2022-12-24T09:34:01;13.60;99.90
3602;DHT22;1815;50.950;6.920;2022-12-24T09:36:26;13.50;99.90
3602;DHT22;1815;50.950;6.920;2022-12-24T09:38:52;13.50;99.90
3602;DHT22;1815;50.950;6.920;2022-12-24T09:46:40;13.60;99.90
3602;DHT22;1815;50.950;6.920;2022-12-24T09:49:14;13.60;99.90
3602;DHT22;1815;50.950;6.920;2022-12-24T09:51:46;13.60;99.90
3602;DHT22;1815;50.950;6.920;2022-12-24T09:54:24;13.60;99.90
3602;DHT22;1815;50.950;6.920;2022-12-24T09:56:53;13.60;99.90
3602;DHT22;1815;50.950;6.920;2022-12-24T09:59:37;13.70;99.90
3602;DHT22;1815;50.950;6.920;2022-12-24T10:02:11;13.70;99.90
3602;DHT22;1815;50.950;6.920;2022-12-24T10:04:38;13.70;99.90
3602;DHT22;1815;50.950;6.920;2022-12-24T10:10:27;13.90;99.90
3602;DHT22;1815;50.950;6.920;2022-12-24T10:16:02;13.90;99.90
3602;DHT22;1815;50.950;6.920;2022-12-24T10:21:12;13.90;99.90
3602;DHT22;1815;50.950;6.920;2022-12-24T10:23:46;13.90;99.90
3602;DHT22;1815;50.950;6.920;2022-12-24T10:26:29;13.90;99.90
3602;DHT22;1815;50.950;6.920;2022-12-24T10:29:14;13.90;99.90
3602;DHT22;1815;50.950;6.920;2022-12-24T10:32:00;14.00;99.90
3602;DHT22;1815;50.950;6.920;2022-12-24T10:34:42;14.00;99.90
3602;DHT22;1815;50.950;6.920;2022-12-24T10:37:37;14.10;99.90
3602;DHT22;1815;50.950;6.920;2022-12-24T10:40:03;14.10;99.90
3602;DHT22;1815;50.950;6.920;2022-12-24T10:42:47;14.20;99.90
3602;DHT22;1815;50.950;6.920;2022-12-24T10:45:16;14.20;99.90
3602;DHT22;1815;50.950;6.920;2022-12-24T10:47:45;14.30;99.90
3602;DHT22;1815;50.950;6.920;2022-12-24T10:50:35;14.30;99.90
3602;DHT22;1815;50.950;6.920;2022-12-24T10:53:17;14.40;99.90
3602;DHT22;1815;50.950;6.920;2022-12-24T10:55:46;14.50;99.90
3602;DHT22;1815;50.950;6.920;2022-12-24T10:58:16;14.50;99.90
3602;DHT22;1815;50.950;6.920;2022-12-24T11:00:50;14.50;99.90
3602;DHT22;1815;50.950;6.920;2022-12-24T11:03:23;14.60;99.90
3602;DHT22;1815;50.950;6.920;2022-12-24T11:06:18;14.60;99.90
3602;DHT22;1815;50.950;6.920;2022-12-24T11:08:46;14.60;99.90
3602;DHT22;1815;50.950;6.920;2022-12-24T11:11:15;14.60;99.90
3602;DHT22;1815;50.950;6.920;2022-12-24T11:16:27;14.60;99.90
3602;DHT22;1815;50.950;6.920;2022-12-24T11:19:00;14.60;99.90
3602;DHT22;1815;50.950;6.920;2022-12-24T11:21:28;14.70;99.90
3602;DHT22;1815;50.950;6.920;2022-12-24T11:23:57;14.70;99.90
3602;DHT22;1815;50.950;6.920;2022-12-24T11:26:27;14.80;99.90
3602;DHT22;1815;50.950;6.920;2022-12-24T11:29:19;14.80;99.90
3602;DHT22;1815;50.950;6.920;2022-12-24T11:31:46;14.80;99.90
3602;DHT22;1815;50.950;6.920;2022-12-24T11:34:30;14.90;99.90
3602;DHT22;1815;50.950;6.920;2022-12-24T11:37:19;15.00;99.90
3602;DHT22;1815;50.950;6.920;2022-12-24T11:42:37;15.00;99.90
3602;DHT22;1815;50.950;6.920;2022-12-24T11:45:07;15.00;99.90
3602;DHT22;1815;50.950;6.920;2022-12-24T11:47:42;15.00;99.90
3602;DHT22;1815;50.950;6.920;2022-12-24T11:50:31;15.10;99.90
3602;DHT22;1815;50.950;6.920;2022-12-24T11:55:48;15.10;99.90
3602;DHT22;1815;50.950;6.920;2022-12-24T12:00:46;15.00;99.90
3602;DHT22;1815;50.950;6.920;2022-12-24T12:03:34;15.10;99.90
3602;DHT22;1815;50.950;6.920;2022-12-24T12:06:05;15.10;99.90
3602;DHT22;1815;50.950;6.920;2022-12-24T12:08:34;15.10;99.90
3602;DHT22;1815;50.950;6.920;2022-12-24T12:11:02;15.10;99.90
3602;DHT22;1815;50.950;6.920;2022-12-24T12:13:34;15.10;99.90
3602;DHT22;1815;50.950;6.920;2022-12-24T12:16:13;15.10;99.90
3602;DHT22;1815;50.950;6.920;2022-12-24T12:18:48;15.10;99.90
3602;DHT22;1815;50.950;6.920;2022-12-24T12:21:18;15.10;99.90
3602;DHT22;1815;50.950;6.920;2022-12-24T12:23:49;15.20;99.90
3602;DHT22;1815;50.950;6.920;2022-12-24T12:26:29;15.20;99.90
3602;DHT22;1815;50.950;6.920;2022-12-24T12:29:28;15.20;99.90
3602;DHT22;1815;50.950;6.920;2022-12-24T12:32:03;15.20;99.90
3602;DHT22;1815;50.950;6.920;2022-12-24T12:34:40;15.30;99.90
3602;DHT22;1815;50.950;6.920;2022-12-24T12:37:17;15.30;99.90
3602;DHT22;1815;50.950;6.920;2022-12-24T12:39:45;15.40;99.90
3602;DHT22;1815;50.950;6.920;2022-12-24T12:42:28;15.40;99.90
3602;DHT22;1815;50.950;6.920;2022-12-24T12:45:47;15.50;99.90
3602;DHT22;1815;50.950;6.920;2022-12-24T12:48:27;15.50;99.90
3602;DHT22;1815;50.950;6.920;2022-12-24T12:51:07;15.60;99.90
3602;DHT22;1815;50.950;6.920;2022-12-24T12:59:02;15.70;99.90
3602;DHT22;1815;50.950;6.920;2022-12-24T13:02:30;15.80;99.90
3602;DHT22;1815;50.950;6.920;2022-12-24T13:16:58;15.80;99.90
3602;DHT22;1815;50.950;6.920;2022-12-24T13:21:57;15.80;99.90
3602;DHT22;1815;50.950;6.920;2022-12-24T13:24:26;15.80;99.90
3602;DHT22;1815;50.950;6.920;2022-12-24T13:27:18;15.70;99.90
3602;DHT22;1815;50.950;6.920;2022-12-24T13:30:08;15.60;99.90
3602;DHT22;1815;50.950;6.920;2022-12-24T13:32:52;15.60;99.90
3602;DHT22;1815;50.950;6.920;2022-12-24T13:37:43;15.50;99.90
3602;DHT22;1815;50.950;6.920;2022-12-24T13:47:54;15.40;99.90
3602;DHT22;1815;50.950;6.920;2022-12-24T13:52:54;15.30;99.90
3602;DHT22;1815;50.950;6.920;2022-12-24T13:55:21;15.30;99.90
3602;DHT22;1815;50.950;6.920;2022-12-24T13:57:54;15.20;99.90
3602;DHT22;1815;50.950;6.920;2022-12-24T14:00:23;15.10;99.90
3602;DHT22;1815;50.950;6.920;2022-12-24T14:02:57;15.00;99.90
3602;DHT22;1815;50.950;6.920;2022-12-24T14:05:30;14.90;99.90
3602;DHT22;1815;50.950;6.920;2022-12-24T14:07:58;14.80;99.90
3602;DHT22;1815;50.950;6.920;2022-12-24T14:10:31;14.80;99.90
3602;DHT22;1815;50.950;6.920;2022-12-24T14:12:59;14.70;99.90
3602;DHT22;1815;50.950;6.920;2022-12-24T14:16:00;14.60;99.90
3602;DHT22;1815;50.950;6.920;2022-12-24T14:18:27;14.50;99.90
3602;DHT22;1815;50.950;6.920;2022-12-24T14:20:55;14.40;99.90
3602;DHT22;1815;50.950;6.920;2022-12-24T14:23:34;14.40;99.90
3602;DHT22;1815;50.950;6.920;2022-12-24T14:26:02;14.30;99.90
3602;DHT22;1815;50.950;6.920;2022-12-24T14:28:39;14.20;99.90
3602;DHT22;1815;50.950;6.920;2022-12-24T14:31:13;14.20;99.90
3602;DHT22;1815;50.950;6.920;2022-12-24T14:33:39;14.10;99.90
3602;DHT22;1815;50.950;6.920;2022-12-24T14:36:05;14.10;99.90
3602;DHT22;1815;50.950;6.920;2022-12-24T14:38:32;14.00;99.90
3602;DHT22;1815;50.950;6.920;2022-12-24T14:43:45;13.90;99.90
3602;DHT22;1815;50.950;6.920;2022-12-24T14:49:03;13.80;99.90
3602;DHT22;1815;50.950;6.920;2022-12-24T14:54:24;13.70;99.90
3602;DHT22;1815;50.950;6.920;2022-12-24T14:59:50;13.70;99.90
3602;DHT22;1815;50.950;6.920;2022-12-24T15:02:44;13.70;99.90
3602;DHT22;1815;50.950;6.920;2022-12-24T15:05:14;13.60;99.90
3602;DHT22;1815;50.950;6.920;2022-12-24T15:10:36;13.50;99.90
3602;DHT22;1815;50.950;6.920;2022-12-24T15:13:31;13.50;99.90
3602;DHT22;1815;50.950;6.920;2022-12-24T15:15:55;13.40;99.90
3602;DHT22;1815;50.950;6.920;2022-12-24T15:18:24;13.30;99.90
3602;DHT22;1815;50.950;6.920;2022-12-24T15:20:53;13.30;99.90
3602;DHT22;1815;50.950;6.920;2022-12-24T15:23:34;13.20;99.90
3602;DHT22;1815;50.950;6.920;2022-12-24T15:26:21;13.20;99.90
3602;DHT22;1815;50.950;6.920;2022-12-24T15:28:48;13.10;99.90
3602;DHT22;1815;50.950;6.920;2022-12-24T15:31:19;13.10;99.90
3602;DHT22;1815;50.950;6.920;2022-12-24T15:33:46;13.10;99.90
3602;DHT22;1815;50.950;6.920;2022-12-24T15:36:14;13.10;99.90
3602;DHT22;1815;50.950;6.920;2022-12-24T15:38:45;12.90;99.90
3602;DHT22;1815;50.950;6.920;2022-12-24T15:41:23;12.90;99.90
3602;DHT22;1815;50.950;6.920;2022-12-24T15:43:50;12.80;99.90
3602;DHT22;1815;50.950;6.920;2022-12-24T15:46:28;12.80;99.90
3602;DHT22;1815;50.950;6.920;2022-12-24T15:48:56;12.80;99.90
3602;DHT22;1815;50.950;6.920;2022-12-24T15:51:27;12.80;99.90
3602;DHT22;1815;50.950;6.920;2022-12-24T15:54:01;12.80;99.90
3602;DHT22;1815;50.950;6.920;2022-12-24T15:56:38;12.80;99.90
3602;DHT22;1815;50.950;6.920;2022-12-24T15:59:28;12.80;99.90
3602;DHT22;1815;50.950;6.920;2022-12-24T16:01:56;12.80;99.90
3602;DHT22;1815;50.950;6.920;2022-12-24T16:04:27;12.70;99.90
3602;DHT22;1815;50.950;6.920;2022-12-24T16:09:42;12.70;99.90
3602;DHT22;1815;50.950;6.920;2022-12-24T16:12:19;12.60;99.90
3602;DHT22;1815;50.950;6.920;2022-12-24T16:14:49;12.60;99.90
3602;DHT22;1815;50.950;6.920;2022-12-24T16:17:24;12.60;99.90
3602;DHT22;1815;50.950;6.920;2022-12-24T16:19:54;12.60;99.90
3602;DHT22;1815;50.950;6.920;2022-12-24T16:22:22;12.60;99.90
3602;DHT22;1815;50.950;6.920;2022-12-24T16:25:20;12.50;99.90
3602;DHT22;1815;50.950;6.920;2022-12-24T16:27:48;12.40;99.90
3602;DHT22;1815;50.950;6.920;2022-12-24T16:30:15;12.40;99.90
3602;DHT22;1815;50.950;6.920;2022-12-24T16:32:41;12.30;99.90
3602;DHT22;1815;50.950;6.920;2022-12-24T16:35:26;12.30;99.90
3602;DHT22;1815;50.950;6.920;2022-12-24T16:37:53;12.20;99.90
3602;DHT22;1815;50.950;6.920;2022-12-24T16:40:20;12.10;99.90
3602;DHT22;1815;50.950;6.920;2022-12-24T16:42:46;12.00;99.90
3602;DHT22;1815;50.950;6.920;2022-12-24T16:45:30;12.00;99.90
3602;DHT22;1815;50.950;6.920;2022-12-24T16:47:57;11.90;99.90
3602;DHT22;1815;50.950;6.920;2022-12-24T16:50:23;11.80;99.90
3602;DHT22;1815;50.950;6.920;2022-12-24T16:52:49;11.80;99.90
3602;DHT22;1815;50.950;6.920;2022-12-24T16:55:15;11.80;99.90
3602;DHT22;1815;50.950;6.920;2022-12-24T16:57:41;11.70;99.90
3602;DHT22;1815;50.950;6.920;2022-12-24T17:00:19;11.70;99.90
3602;DHT22;1815;50.950;6.920;2022-12-24T17:02:46;11.70;99.90
3602;DHT22;1815;50.950;6.920;2022-12-24T17:05:12;11.70;99.90
3602;DHT22;1815;50.950;6.920;2022-12-24T17:07:38;11.70;99.90
3602;DHT22;1815;50.950;6.920;2022-12-24T17:10:08;11.60;99.90
3602;DHT22;1815;50.950;6.920;2022-12-24T17:12:34;11.60;99.90
3602;DHT22;1815;50.950;6.920;2022-12-24T17:14:59;11.60;99.90
3602;DHT22;1815;50.950;6.920;2022-12-24T17:17:27;11.60;99.90
3602;DHT22;1815;50.950;6.920;2022-12-24T17:19:56;11.60;99.90
3602;DHT22;1815;50.950;6.920;2022-12-24T17:22:23;11.60;99.90
3602;DHT22;1815;50.950;6.920;2022-12-24T17:24:52;11.60;99.90
3602;DHT22;1815;50.950;6.920;2022-12-24T17:27:18;11.50;99.90
3602;DHT22;1815;50.950;6.920;2022-12-24T17:29:44;11.50;99.90
3602;DHT22;1815;50.950;6.920;2022-12-24T17:32:10;11.50;99.90
3602;DHT22;1815;50.950;6.920;2022-12-24T17:34:36;11.50;99.90
3602;DHT22;1815;50.950;6.920;2022-12-24T17:37:01;11.40;99.90
3602;DHT22;1815;50.950;6.920;2022-12-24T17:39:27;11.40;99.90
3602;DHT22;1815;50.950;6.920;2022-12-24T17:41:53;11.40;99.90
3602;DHT22;1815;50.950;6.920;2022-12-24T17:44:18;11.30;99.90
3602;DHT22;1815;50.950;6.920;2022-12-24T17:46:44;11.30;99.90
3602;DHT22;1815;50.950;6.920;2022-12-24T17:49:14;11.30;99.90
3602;DHT22;1815;50.950;6.920;2022-12-24T17:51:40;11.30;99.90
3602;DHT22;1815;50.950;6.920;2022-12-24T17:54:06;11.20;99.90
3602;DHT22;1815;50.950;6.920;2022-12-24T17:56:32;11.20;99.90
3602;DHT22;1815;50.950;6.920;2022-12-24T17:58:58;11.20;99.90
3602;DHT22;1815;50.950;6.920;2022-12-24T18:01:25;11.10;99.90
3602;DHT22;1815;50.950;6.920;2022-12-24T18:03:57;11.10;99.90